createdAt,value
2018-04-22T00:00:26.645Z,90.32
2018-04-22T00:03:29.970Z,90.70
2018-04-22T00:06:33.298Z,90.68
2018-04-22T00:09:36.632Z,90.60
2018-04-22T00:12:39.972Z,90.54
2018-04-22T00:15:43.317Z,90.32
2018-04-22T00:18:46.641Z,90.62
2018-04-22T00:21:49.969Z,90.99
2018-04-22T00:24:54.399Z,91.30
2018-04-22T00:27:57.738Z,91.44
2018-04-22T00:31:01.070Z,91.74
2018-04-22T00:34:04.385Z,91.84
2018-04-22T00:37:08.465Z,92.14
2018-04-22T00:40:11.774Z,92.23
2018-04-22T00:43:15.114Z,92.26
2018-04-22T00:46:18.413Z,92.35
2018-04-22T00:49:21.746Z,92.51
2018-04-22T00:52:25.057Z,92.52
2018-04-22T00:55:28.376Z,92.65
2018-04-22T00:58:32.449Z,92.69
2018-04-22T01:01:36.873Z,92.73
2018-04-22T01:04:40.183Z,92.56
2018-04-22T01:07:43.589Z,92.31
2018-04-22T01:10:46.944Z,92.16
2018-04-22T01:13:50.281Z,92.01
2018-04-22T01:16:53.576Z,91.85
2018-04-22T01:19:56.899Z,91.71
2018-04-22T01:23:00.206Z,91.74
2018-04-22T01:26:03.521Z,91.78
2018-04-22T01:29:06.853Z,91.83
2018-04-22T01:32:10.149Z,91.82
2018-04-22T01:35:13.476Z,91.76
2018-04-22T01:38:17.550Z,91.51
2018-04-22T01:41:20.860Z,91.54
2018-04-22T01:44:24.190Z,91.36
2018-04-22T01:47:28.252Z,91.24
2018-04-22T01:50:31.578Z,91.21
2018-04-22T01:53:34.901Z,91.24
2018-04-22T01:56:38.961Z,91.27
2018-04-22T01:59:42.276Z,91.17
2018-04-22T02:02:45.574Z,91.03
2018-04-22T02:05:48.906Z,90.86
2018-04-22T02:08:52.981Z,90.47
2018-04-22T02:11:56.312Z,89.97
2018-04-22T02:14:59.654Z,90.38
2018-04-22T02:18:02.956Z,90.58
2018-04-22T02:21:06.294Z,90.82
2018-04-22T02:24:10.365Z,90.99
2018-04-22T02:27:13.747Z,90.89
2018-04-22T02:30:17.771Z,90.54
2018-04-22T02:33:21.094Z,90.62
2018-04-22T02:36:24.403Z,90.50
2018-04-22T02:39:28.510Z,90.54
2018-04-22T02:42:31.817Z,90.39
2018-04-22T02:45:35.141Z,90.47
2018-04-22T02:48:38.477Z,90.54
2018-04-22T02:51:41.779Z,90.66
2018-04-22T02:54:45.112Z,90.34
2018-04-22T02:57:49.189Z,90.44
2018-04-22T03:00:52.518Z,90.48
2018-04-22T03:03:55.826Z,90.35
2018-04-22T03:06:59.153Z,90.33
2018-04-22T03:10:02.457Z,90.54
2018-04-22T03:13:05.772Z,90.51
2018-04-22T03:16:09.073Z,90.75
2018-04-22T03:19:12.396Z,90.97
2018-04-22T03:22:16.542Z,91.15
2018-04-22T03:25:19.827Z,91.68
2018-04-22T03:28:23.137Z,91.92
2018-04-22T03:31:26.458Z,92.08
2018-04-22T03:34:29.785Z,92.21
2018-04-22T03:37:33.093Z,92.22
2018-04-22T03:40:36.434Z,92.20
2018-04-22T03:43:39.742Z,92.06
2018-04-22T03:46:43.069Z,92.08
2018-04-22T03:49:46.373Z,92.04
2018-04-22T03:52:49.712Z,91.80
2018-04-22T03:55:53.020Z,91.87
2018-04-22T03:58:56.337Z,91.53
2018-04-22T04:01:59.645Z,91.47
2018-04-22T04:05:02.986Z,91.27
2018-04-22T04:08:06.293Z,91.43
2018-04-22T04:11:09.626Z,91.56
2018-04-22T04:14:12.937Z,91.68
2018-04-22T04:17:16.266Z,91.68
2018-04-22T04:20:37.250Z,91.34
2018-04-22T04:27:47.230Z,91.32
2018-04-22T04:30:50.593Z,91.12
2018-04-22T04:33:53.878Z,91.16
2018-04-22T04:36:57.177Z,91.30
2018-04-22T04:40:00.492Z,91.41
2018-04-22T04:43:03.789Z,91.49
2018-04-22T04:46:07.105Z,91.53
2018-04-22T04:49:10.401Z,91.38
2018-04-22T04:52:13.729Z,91.35
2018-04-22T04:55:17.065Z,91.40
2018-04-22T04:58:20.374Z,91.26
2018-04-22T05:01:23.711Z,91.31
2018-04-22T05:04:27.013Z,91.32
2018-04-22T05:07:30.345Z,90.92
2018-04-22T05:10:33.653Z,90.76
2018-04-22T05:13:36.974Z,90.55
2018-04-22T05:16:40.297Z,90.22
2018-04-22T05:19:44.374Z,90.25
2018-04-22T05:22:47.693Z,90.37
2018-04-22T05:25:51.761Z,90.44
2018-04-22T05:28:55.074Z,90.48
2018-04-22T05:31:58.370Z,90.47
2018-04-22T05:35:01.713Z,90.32
2018-04-22T05:38:05.012Z,90.12
2018-04-22T05:41:08.350Z,89.81
2018-04-22T05:44:11.649Z,89.77
2018-04-22T05:47:14.969Z,89.75
2018-04-22T05:50:18.290Z,89.69
2018-04-22T05:53:22.360Z,89.68
2018-04-22T05:56:25.685Z,89.48
2018-04-22T05:59:29.753Z,89.32
2018-04-22T06:02:33.069Z,89.06
2018-04-22T06:05:36.367Z,89.26
2018-04-22T06:08:39.726Z,89.04
2018-04-22T06:11:43.769Z,89.23
2018-04-22T06:14:47.091Z,89.36
2018-04-22T06:17:50.429Z,89.55
2018-04-22T06:20:53.732Z,89.72
2018-04-22T06:23:57.048Z,89.66
2018-04-22T06:27:00.370Z,89.19
2018-04-22T06:30:03.703Z,89.18
2018-04-22T06:33:07.005Z,89.12
2018-04-22T06:36:10.317Z,89.36
2018-04-22T06:39:13.629Z,89.33
2018-04-22T06:42:16.940Z,89.36
2018-04-22T06:45:20.246Z,90.12
2018-04-22T06:48:23.566Z,90.38
2018-04-22T06:51:27.629Z,90.09
2018-04-22T06:54:30.944Z,89.90
2018-04-22T06:57:34.252Z,89.48
2018-04-22T07:00:37.565Z,89.21
2018-04-22T07:03:40.857Z,88.70
2018-04-22T07:06:44.169Z,88.03
2018-04-22T07:09:48.264Z,88.00
2018-04-22T07:12:51.565Z,87.71
2018-04-22T07:15:54.881Z,87.52
2018-04-22T07:18:58.948Z,87.40
2018-04-22T07:22:02.262Z,86.90
2018-04-22T07:25:06.340Z,86.55
2018-04-22T07:28:09.665Z,86.20
2018-04-22T07:31:12.977Z,85.34
2018-04-22T07:34:16.298Z,84.91
2018-04-22T07:37:19.601Z,83.89
2018-04-22T07:40:22.935Z,81.89
2018-04-22T07:43:26.260Z,81.97
2018-04-22T07:46:29.566Z,82.32
2018-04-22T07:49:33.665Z,81.40
2018-04-22T07:52:37.097Z,81.05
2018-04-22T07:55:41.273Z,81.28
2018-04-22T07:58:44.581Z,80.56
2018-04-22T08:01:47.905Z,80.83
2018-04-22T08:04:51.975Z,81.15
2018-04-22T08:07:55.323Z,79.74
2018-04-22T08:10:58.641Z,78.95
2018-04-22T08:14:01.971Z,76.92
2018-04-22T08:17:05.281Z,77.45
2018-04-22T08:20:08.601Z,74.66
2018-04-22T08:23:12.665Z,73.08
2018-04-22T08:26:15.989Z,73.33
2018-04-22T08:29:19.360Z,72.51
2018-04-22T08:32:22.724Z,70.73
2018-04-22T08:35:26.041Z,70.58
2018-04-22T08:38:29.354Z,69.12
2018-04-22T08:41:32.674Z,69.85
2018-04-22T08:44:35.973Z,69.18
2018-04-22T08:47:39.796Z,68.44
2018-04-22T08:50:43.130Z,69.10
2018-04-22T08:53:46.454Z,69.08
2018-04-22T08:56:49.760Z,66.01
2018-04-22T08:59:53.089Z,66.46
2018-04-22T09:02:57.153Z,66.50
2018-04-22T09:06:00.473Z,65.15
2018-04-22T09:09:03.777Z,65.81
2018-04-22T09:12:07.098Z,63.99
2018-04-22T09:15:10.415Z,64.45
2018-04-22T09:18:13.737Z,64.25
2018-04-22T09:21:17.053Z,62.38
2018-04-22T09:24:20.384Z,61.47
2018-04-22T09:27:23.763Z,61.99
2018-04-22T09:30:27.057Z,63.32
2018-04-22T09:33:30.383Z,61.62
2018-04-22T09:36:33.679Z,60.56
2018-04-22T09:39:36.996Z,59.63
2018-04-22T09:42:40.297Z,58.50
2018-04-22T09:45:43.621Z,58.34
2018-04-22T09:48:46.933Z,58.67
2018-04-22T09:51:50.250Z,58.91
2018-04-22T09:54:54.314Z,56.08
2018-04-22T09:57:57.637Z,57.62
2018-04-22T10:01:00.972Z,55.83
2018-04-22T10:04:12.540Z,56.90
2018-04-22T10:07:16.621Z,55.90
2018-04-22T10:10:19.944Z,55.25
2018-04-22T10:13:24.013Z,55.38
2018-04-22T10:16:27.365Z,53.28
2018-04-22T10:19:30.666Z,53.86
2018-04-22T10:22:33.971Z,52.46
2018-04-22T10:25:37.297Z,52.94
2018-04-22T10:28:40.630Z,51.91
2018-04-22T10:31:43.937Z,53.03
2018-04-22T10:34:48.017Z,53.01
2018-04-22T10:37:51.337Z,52.47
2018-04-22T10:40:54.669Z,52.47
2018-04-22T10:43:57.985Z,52.72
2018-04-22T10:47:01.308Z,51.35
2018-04-22T10:50:04.629Z,49.65
2018-04-22T10:53:08.713Z,51.93
2018-04-22T10:56:12.035Z,52.62
2018-04-22T10:59:15.461Z,53.77
2018-04-22T11:02:19.556Z,52.17
2018-04-22T11:05:22.862Z,52.94
2018-04-22T11:08:26.960Z,51.33
2018-04-22T11:11:30.320Z,52.35
2018-04-22T11:14:33.645Z,51.88
2018-04-22T11:17:36.965Z,51.15
2018-04-22T11:20:40.317Z,49.60
2018-04-22T11:23:43.626Z,51.90
2018-04-22T11:26:46.949Z,49.54
2018-04-22T11:29:51.029Z,49.06
2018-04-22T11:32:54.349Z,48.95
2018-04-22T11:35:57.667Z,49.75
2018-04-22T11:39:01.745Z,48.61
2018-04-22T11:42:05.089Z,47.00
2018-04-22T11:45:08.400Z,47.81
2018-04-22T11:48:11.721Z,46.54
2018-04-22T11:51:15.049Z,46.32
2018-04-22T11:54:18.357Z,46.72
2018-04-22T11:57:22.436Z,47.67
2018-04-22T12:00:25.758Z,46.94
2018-04-22T12:03:29.082Z,46.61
2018-04-22T12:06:32.406Z,45.98
2018-04-22T12:09:35.721Z,47.65
2018-04-22T12:12:39.029Z,46.92
2018-04-22T12:15:42.344Z,47.04
2018-04-22T12:18:45.671Z,46.64
2018-04-22T12:21:48.989Z,46.76
2018-04-22T12:24:52.330Z,45.63
2018-04-22T12:27:55.636Z,44.95
2018-04-22T12:30:58.956Z,44.84
2018-04-22T12:34:02.257Z,46.24
2018-04-22T12:37:05.589Z,45.32
2018-04-22T12:40:08.893Z,44.82
2018-04-22T12:43:12.214Z,45.82
2018-04-22T12:46:15.545Z,44.49
2018-04-22T12:49:18.851Z,44.83
2018-04-22T12:52:22.182Z,45.12
2018-04-22T12:55:25.506Z,44.66
2018-04-22T12:58:29.606Z,45.93
2018-04-22T13:01:32.911Z,43.78
2018-04-22T13:04:36.237Z,44.84
2018-04-22T13:07:39.567Z,46.15
2018-04-22T13:10:42.892Z,45.94
2018-04-22T13:13:46.205Z,45.57
2018-04-22T13:16:50.300Z,45.25
2018-04-22T13:19:53.622Z,44.34
2018-04-22T13:22:57.713Z,44.47
2018-04-22T13:26:01.012Z,44.78
2018-04-22T13:29:04.333Z,44.85
2018-04-22T13:32:08.429Z,44.48
2018-04-22T13:35:11.729Z,44.36
2018-04-22T13:38:15.816Z,45.26
2018-04-22T13:41:19.143Z,44.33
2018-04-22T13:44:22.459Z,45.19
2018-04-22T13:47:25.806Z,45.93
2018-04-22T13:50:29.127Z,46.16
2018-04-22T13:53:32.429Z,45.98
2018-04-22T13:56:36.517Z,46.42
2018-04-22T13:59:39.834Z,47.56
2018-04-22T14:02:43.153Z,46.81
2018-04-22T14:05:47.217Z,46.41
2018-04-22T14:08:50.537Z,46.39
2018-04-22T14:11:53.837Z,47.99
2018-04-22T14:14:57.160Z,47.05
2018-04-22T14:18:00.497Z,46.04
2018-04-22T14:21:03.793Z,47.04
2018-04-22T14:24:07.108Z,47.50
2018-04-22T14:27:10.417Z,48.07
2018-04-22T14:30:13.745Z,44.20
2018-04-22T14:33:17.053Z,44.48
2018-04-22T14:36:20.385Z,45.63
2018-04-22T14:39:23.681Z,45.92
2018-04-22T14:42:27.000Z,44.88
2018-04-22T14:45:48.041Z,45.17
2018-04-22T14:49:05.047Z,45.76
2018-04-22T14:52:09.132Z,45.11
2018-04-22T14:55:12.429Z,45.74
2018-04-22T14:58:15.761Z,45.72
2018-04-22T15:01:19.821Z,45.43
2018-04-22T15:04:23.136Z,45.56
2018-04-22T15:07:26.465Z,45.68
2018-04-22T15:10:30.545Z,45.08
2018-04-22T15:13:33.880Z,45.09
2018-04-22T15:16:37.189Z,45.66
2018-04-22T15:19:40.520Z,44.53
2018-04-22T15:22:43.816Z,45.12
2018-04-22T15:25:47.137Z,46.01
2018-04-22T15:28:50.473Z,46.47
2018-04-22T15:31:53.814Z,47.01
2018-04-22T15:34:57.126Z,46.61
2018-04-22T15:38:00.448Z,46.05
2018-04-22T15:41:04.525Z,46.27
2018-04-22T15:44:07.861Z,46.34
2018-04-22T15:47:11.936Z,45.94
2018-04-22T15:50:15.255Z,45.42
2018-04-22T15:53:18.586Z,46.20
2018-04-22T15:56:21.893Z,46.65
2018-04-22T15:59:25.218Z,47.37
2018-04-22T16:02:28.549Z,46.58
2018-04-22T16:05:32.633Z,46.74
2018-04-22T16:08:35.929Z,47.71
2018-04-22T16:11:39.261Z,48.34
2018-04-22T16:14:43.414Z,47.28
2018-04-22T16:17:46.700Z,47.36
2018-04-22T16:20:50.025Z,46.81
2018-04-22T16:23:53.334Z,47.33
2018-04-22T16:26:56.658Z,47.42
2018-04-22T16:30:00.730Z,46.90
2018-04-22T16:33:04.046Z,47.22
2018-04-22T16:36:07.353Z,47.24
2018-04-22T16:39:10.673Z,47.47
2018-04-22T16:42:14.746Z,47.41
2018-04-22T16:45:18.073Z,47.80
2018-04-22T16:48:22.140Z,47.27
2018-04-22T16:51:25.476Z,47.12
2018-04-22T16:54:28.786Z,46.81
2018-04-22T16:57:32.877Z,47.23
2018-04-22T17:00:36.178Z,46.44
2018-04-22T17:03:39.502Z,46.89
2018-04-22T17:06:43.582Z,47.35
2018-04-22T17:09:46.885Z,47.03
2018-04-22T17:12:50.218Z,45.53
2018-04-22T17:15:53.538Z,46.40
2018-04-22T17:18:56.836Z,46.98
2018-04-22T17:22:00.148Z,47.42
2018-04-22T17:25:03.469Z,47.32
2018-04-22T17:28:06.789Z,46.72
2018-04-22T17:31:10.106Z,47.53
2018-04-22T17:34:13.422Z,47.55
2018-04-22T17:37:16.729Z,48.21
2018-04-22T17:40:20.057Z,48.71
2018-04-22T17:43:24.152Z,49.19
2018-04-22T17:46:27.457Z,49.57
2018-04-22T17:49:30.786Z,50.12
2018-04-22T17:52:34.109Z,50.45
2018-04-22T17:55:37.433Z,51.46
2018-04-22T17:58:40.742Z,52.10
2018-04-22T18:01:44.121Z,52.71
2018-04-22T18:04:47.411Z,53.63
2018-04-22T18:07:50.881Z,53.72
2018-04-22T18:10:54.192Z,54.34
2018-04-22T18:13:57.528Z,55.34
2018-04-22T18:17:00.866Z,55.61
2018-04-22T18:20:04.166Z,56.39
2018-04-22T18:23:07.494Z,56.65
2018-04-22T18:26:10.803Z,57.13
2018-04-22T18:29:14.133Z,57.68
2018-04-22T18:32:18.209Z,58.11
2018-04-22T18:35:21.528Z,58.88
2018-04-22T18:38:24.861Z,59.41
2018-04-22T18:41:28.168Z,60.25
2018-04-22T18:44:31.492Z,60.60
2018-04-22T18:47:34.790Z,61.17
2018-04-22T18:50:38.117Z,61.45
2018-04-22T18:53:41.438Z,62.23
2018-04-22T18:56:44.762Z,62.49
2018-04-22T18:59:48.061Z,62.83
2018-04-22T19:02:51.373Z,62.86
2018-04-22T19:05:54.702Z,63.50
2018-04-22T19:08:58.789Z,63.46
2018-04-22T19:12:02.089Z,63.40
2018-04-22T19:15:05.413Z,63.67
2018-04-22T19:18:09.512Z,63.67
2018-04-22T19:21:12.817Z,63.72
2018-04-22T19:24:16.149Z,63.50
2018-04-22T19:27:19.461Z,63.31
2018-04-22T19:30:22.809Z,63.40
2018-04-22T19:33:26.113Z,63.45
2018-04-22T19:36:30.205Z,63.52
2018-04-22T19:39:33.512Z,63.67
2018-04-22T19:42:36.839Z,63.71
2018-04-22T19:45:40.171Z,63.86
2018-04-22T19:48:43.481Z,64.19
2018-04-22T19:51:46.808Z,64.22
2018-04-22T19:54:50.901Z,64.24
2018-04-22T19:57:54.213Z,64.26
2018-04-22T20:00:57.548Z,64.33
2018-04-22T20:04:00.850Z,64.24
2018-04-22T20:07:04.176Z,64.48
2018-04-22T20:10:07.481Z,64.35
2018-04-22T20:13:10.825Z,64.46
2018-04-22T20:16:14.128Z,64.38
2018-04-22T20:19:17.448Z,64.38
2018-04-22T20:22:20.798Z,64.81
2018-04-22T20:25:24.885Z,65.09
2018-04-22T20:28:28.217Z,64.74
2018-04-22T20:31:32.313Z,65.27
2018-04-22T20:34:35.653Z,65.20
2018-04-22T20:37:38.957Z,65.43
2018-04-22T20:40:42.277Z,65.72
2018-04-22T20:43:45.593Z,65.94
2018-04-22T20:46:48.908Z,66.10
2018-04-22T20:49:52.978Z,66.10
2018-04-22T20:52:56.318Z,66.24
2018-04-22T20:56:00.409Z,66.40
2018-04-22T20:59:03.733Z,66.71
2018-04-22T21:02:07.806Z,67.12
2018-04-22T21:05:11.129Z,67.68
2018-04-22T21:08:14.457Z,67.62
2018-04-22T21:11:17.765Z,67.73
2018-04-22T21:14:21.091Z,67.94
2018-04-22T21:17:24.417Z,68.24
2018-04-22T21:20:27.737Z,68.00
2018-04-22T21:23:31.081Z,68.04
2018-04-22T21:26:34.393Z,68.17
2018-04-22T21:29:37.721Z,68.48
2018-04-22T21:32:41.793Z,68.87
2018-04-22T21:35:45.133Z,69.03
2018-04-22T21:38:48.432Z,69.02
2018-04-22T21:41:52.528Z,69.23
2018-04-22T21:44:55.848Z,69.39
2018-04-22T21:47:59.153Z,69.50
2018-04-22T21:51:02.477Z,69.60
2018-04-22T21:54:05.785Z,69.62
2018-04-22T21:57:09.109Z,69.62
2018-04-22T22:00:13.181Z,69.46
2018-04-22T22:03:16.508Z,69.26
2018-04-22T22:06:19.809Z,69.22
2018-04-22T22:09:23.133Z,69.06
2018-04-22T22:12:27.221Z,69.27
2018-04-22T22:15:30.545Z,69.37
2018-04-22T22:18:34.639Z,69.70
2018-04-22T22:21:37.973Z,69.89
2018-04-22T22:24:41.280Z,70.41
2018-04-22T22:27:44.602Z,70.59
2018-04-22T22:30:47.933Z,71.02
2018-04-22T22:33:51.998Z,71.58
2018-04-22T22:36:55.315Z,71.93
2018-04-22T22:39:58.648Z,72.73
2018-04-22T22:43:02.717Z,72.90
2018-04-22T22:46:06.040Z,73.24
2018-04-22T22:49:09.364Z,74.53
2018-04-22T22:52:12.705Z,74.29
2018-04-22T22:55:16.017Z,75.16
2018-04-22T22:58:19.345Z,75.54
2018-04-22T23:01:23.429Z,76.00
2018-04-22T23:04:26.751Z,76.48
2018-04-22T23:07:30.821Z,77.37
2018-04-22T23:10:34.145Z,78.11
2018-04-22T23:13:37.448Z,79.76
2018-04-22T23:16:40.774Z,81.39
2018-04-22T23:19:44.081Z,82.65
2018-04-22T23:22:47.406Z,83.28
2018-04-22T23:25:50.729Z,83.60
2018-04-22T23:28:54.041Z,84.06
2018-04-22T23:31:58.134Z,84.46
2018-04-22T23:35:01.441Z,84.87
2018-04-22T23:38:04.775Z,85.24
2018-04-22T23:41:08.094Z,86.37
2018-04-22T23:44:11.416Z,87.25
2018-04-22T23:47:14.725Z,87.87
2018-04-22T23:50:18.057Z,87.63
2018-04-22T23:53:21.386Z,87.66
2018-04-22T23:56:24.694Z,87.46
2018-04-22T23:59:28.017Z,87.48
